createdAt,value
2023-05-15T00:00:53.165Z,94313.00
2023-05-15T00:01:53.229Z,94311.00
2023-05-15T00:02:53.337Z,94313.00
2023-05-15T00:03:53.339Z,94311.00
2023-05-15T00:04:53.442Z,94307.00
2023-05-15T00:05:53.411Z,94307.00
2023-05-15T00:06:53.554Z,94307.00
2023-05-15T00:07:53.559Z,94305.00
2023-05-15T00:08:53.633Z,94305.00
2023-05-15T00:09:53.665Z,94303.00
2023-05-15T00:11:01.308Z,94299.00
2023-05-15T00:11:54.723Z,94299.00
2023-05-15T00:12:53.724Z,94299.00
2023-05-15T00:13:53.728Z,94296.00
2023-05-15T00:14:53.725Z,94298.00
2023-05-15T00:15:53.756Z,94296.00
2023-05-15T00:16:53.712Z,94294.00
2023-05-15T00:17:53.777Z,94292.00
2023-05-15T00:18:53.882Z,94296.00
2023-05-15T00:19:53.812Z,94294.00
2023-05-15T00:20:53.868Z,94296.00
2023-05-15T00:21:53.937Z,94298.00
2023-05-15T00:22:53.990Z,94298.00
2023-05-15T00:23:54.107Z,94296.00
2023-05-15T00:24:54.158Z,94290.00
2023-05-15T00:25:54.167Z,94292.00
2023-05-15T00:26:54.272Z,94294.00
2023-05-15T00:27:54.271Z,94294.00
2023-05-15T00:28:54.319Z,94296.00
2023-05-15T00:29:54.410Z,94288.00
2023-05-15T00:30:54.498Z,94288.00
2023-05-15T00:31:54.699Z,94290.00
2023-05-15T00:32:54.615Z,94292.00
2023-05-15T00:33:54.634Z,94296.00
2023-05-15T00:34:54.718Z,94298.00
2023-05-15T00:35:54.789Z,94298.00
2023-05-15T00:36:54.834Z,94298.00
2023-05-15T00:37:54.881Z,94294.00
2023-05-15T00:38:54.945Z,94294.00
2023-05-15T00:39:54.980Z,94294.00
2023-05-15T00:40:55.097Z,94294.00
2023-05-15T00:41:55.117Z,94294.00
2023-05-15T00:42:55.252Z,94292.00
2023-05-15T00:43:55.245Z,94294.00
2023-05-15T00:44:55.315Z,94296.00
2023-05-15T00:45:55.388Z,94292.00
2023-05-15T00:46:55.525Z,94292.00
2023-05-15T00:47:55.566Z,94292.00
2023-05-15T00:48:55.576Z,94292.00
2023-05-15T00:49:55.666Z,94294.00
2023-05-15T00:50:55.742Z,94294.00
2023-05-15T00:51:55.776Z,94294.00
2023-05-15T00:52:55.787Z,94296.00
2023-05-15T00:53:55.931Z,94296.00
2023-05-15T00:54:55.914Z,94298.00
2023-05-15T00:55:56.016Z,94292.00
2023-05-15T00:56:56.035Z,94286.00
2023-05-15T00:57:56.134Z,94286.00
2023-05-15T00:58:56.197Z,94290.00
2023-05-15T00:59:56.235Z,94292.00
2023-05-15T01:00:56.349Z,94292.00
2023-05-15T01:01:56.355Z,94292.00
2023-05-15T01:02:56.525Z,94288.00
2023-05-15T01:03:56.479Z,94286.00
2023-05-15T01:04:56.501Z,94286.00
2023-05-15T01:05:56.562Z,94290.00
2023-05-15T01:06:56.621Z,94290.00
2023-05-15T01:07:56.680Z,94288.00
2023-05-15T01:08:56.750Z,94292.00
2023-05-15T01:09:56.823Z,94298.00
2023-05-15T01:10:56.865Z,94301.00
2023-05-15T01:11:56.945Z,94298.00
2023-05-15T01:12:57.021Z,94299.00
2023-05-15T01:13:57.568Z,94301.00
2023-05-15T01:14:57.149Z,94299.00
2023-05-15T01:15:57.176Z,94299.00
2023-05-15T01:16:57.248Z,94298.00
2023-05-15T01:17:57.282Z,94296.00
2023-05-15T01:18:57.348Z,94298.00
2023-05-15T01:19:57.587Z,94296.00
2023-05-15T01:20:57.454Z,94298.00
2023-05-15T01:21:57.516Z,94290.00
2023-05-15T01:22:57.579Z,94294.00
2023-05-15T01:23:57.634Z,94294.00
2023-05-15T01:24:57.637Z,94292.00
2023-05-15T01:25:57.670Z,94290.00
2023-05-15T01:26:57.754Z,94290.00
2023-05-15T01:27:57.786Z,94292.00
2023-05-15T01:28:57.825Z,94294.00
2023-05-15T01:29:57.868Z,94296.00
2023-05-15T01:30:57.933Z,94294.00
2023-05-15T01:31:57.989Z,94298.00
2023-05-15T01:32:58.037Z,94294.00
2023-05-15T01:33:58.027Z,94288.00
2023-05-15T01:34:58.046Z,94288.00
2023-05-15T01:35:58.104Z,94294.00
2023-05-15T01:36:58.211Z,94296.00
2023-05-15T01:37:58.217Z,94296.00
2023-05-15T01:38:58.327Z,94296.00
2023-05-15T01:39:58.361Z,94294.00
2023-05-15T01:40:58.397Z,94292.00
2023-05-15T01:41:58.472Z,94292.00
2023-05-15T01:42:58.528Z,94292.00
2023-05-15T01:43:58.598Z,94298.00
2023-05-15T01:44:58.637Z,94299.00
2023-05-15T01:45:58.731Z,94299.00
2023-05-15T01:46:58.754Z,94296.00
2023-05-15T01:47:58.853Z,94298.00
2023-05-15T01:48:58.872Z,94298.00
2023-05-15T01:49:58.909Z,94298.00
2023-05-15T01:50:58.940Z,94296.00
2023-05-15T01:51:59.027Z,94296.00
2023-05-15T01:52:59.072Z,94299.00
2023-05-15T01:53:59.116Z,94303.00
2023-05-15T01:54:59.174Z,94301.00
2023-05-15T01:55:59.234Z,94305.00
2023-05-15T01:56:59.282Z,94301.00
2023-05-15T01:57:59.345Z,94301.00
2023-05-15T01:58:59.431Z,94301.00
2023-05-15T01:59:59.464Z,94309.00
2023-05-15T02:00:59.487Z,94305.00
2023-05-15T02:01:59.591Z,94303.00
2023-05-15T02:02:59.707Z,94301.00
2023-05-15T02:03:59.640Z,94303.00
2023-05-15T02:04:59.592Z,94307.00
2023-05-15T02:05:59.657Z,94305.00
2023-05-15T02:06:59.667Z,94307.00
2023-05-15T02:07:59.723Z,94307.00
2023-05-15T02:08:59.798Z,94311.00
2023-05-15T02:09:59.799Z,94307.00
2023-05-15T02:10:59.804Z,94303.00
2023-05-15T02:11:59.837Z,94301.00
2023-05-15T02:12:59.837Z,94301.00
2023-05-15T02:13:59.921Z,94301.00
2023-05-15T02:14:59.916Z,94296.00
2023-05-15T02:16:00.186Z,94298.00
2023-05-15T02:17:00.017Z,94298.00
2023-05-15T02:18:00.113Z,94305.00
2023-05-15T02:19:00.220Z,94305.00
2023-05-15T02:20:00.164Z,94305.00
2023-05-15T02:21:00.262Z,94301.00
2023-05-15T02:22:00.213Z,94301.00
2023-05-15T02:23:00.303Z,94299.00
2023-05-15T02:24:00.296Z,94301.00
2023-05-15T02:25:00.388Z,94301.00
2023-05-15T02:26:00.380Z,94299.00
2023-05-15T02:27:00.441Z,94294.00
2023-05-15T02:28:00.468Z,94294.00
2023-05-15T02:29:00.485Z,94288.00
2023-05-15T02:30:00.576Z,94292.00
2023-05-15T02:31:00.552Z,94292.00
2023-05-15T02:32:00.635Z,94296.00
2023-05-15T02:33:01.213Z,94298.00
2023-05-15T02:34:00.698Z,94299.00
2023-05-15T02:35:00.755Z,94296.00
2023-05-15T02:36:00.791Z,94292.00
2023-05-15T02:37:00.873Z,94292.00
2023-05-15T02:38:00.982Z,94292.00
2023-05-15T02:39:00.933Z,94294.00
2023-05-15T02:40:01.027Z,94294.00
2023-05-15T02:41:01.063Z,94294.00
2023-05-15T02:42:01.137Z,94296.00
2023-05-15T02:43:01.184Z,94299.00
2023-05-15T02:44:01.216Z,94294.00
2023-05-15T02:45:01.258Z,94292.00
2023-05-15T02:46:01.354Z,94288.00
2023-05-15T02:47:01.344Z,94288.00
2023-05-15T02:48:01.439Z,94288.00
2023-05-15T02:49:01.457Z,94288.00
2023-05-15T02:50:01.489Z,94288.00
2023-05-15T02:51:01.530Z,94286.00
2023-05-15T02:52:01.534Z,94284.00
2023-05-15T02:53:01.564Z,94286.00
2023-05-15T02:54:01.640Z,94284.00
2023-05-15T02:55:01.726Z,94282.00
2023-05-15T02:56:01.703Z,94278.00
2023-05-15T02:57:01.745Z,94286.00
2023-05-15T02:58:01.795Z,94284.00
2023-05-15T02:59:01.832Z,94286.00
2023-05-15T03:00:01.878Z,94286.00
2023-05-15T03:01:02.019Z,94290.00
2023-05-15T03:02:01.949Z,94296.00
2023-05-15T03:03:02.030Z,94294.00
2023-05-15T03:04:02.092Z,94298.00
2023-05-15T03:05:02.111Z,94294.00
2023-05-15T03:06:02.120Z,94296.00
2023-05-15T03:07:02.145Z,94296.00
2023-05-15T03:08:02.239Z,94299.00
2023-05-15T03:09:02.281Z,94299.00
2023-05-15T03:10:02.317Z,94299.00
2023-05-15T03:11:02.362Z,94299.00
2023-05-15T03:12:02.376Z,94298.00
2023-05-15T03:13:02.435Z,94298.00
2023-05-15T03:14:02.466Z,94296.00
2023-05-15T03:15:02.489Z,94294.00
2023-05-15T03:16:02.574Z,94296.00
2023-05-15T03:17:02.622Z,94296.00
2023-05-15T03:18:02.741Z,94301.00
2023-05-15T03:19:02.784Z,94301.00
2023-05-15T03:20:02.728Z,94303.00
2023-05-15T03:21:02.758Z,94303.00
2023-05-15T03:22:02.775Z,94299.00
2023-05-15T03:23:02.817Z,94299.00
2023-05-15T03:24:02.862Z,94301.00
2023-05-15T03:25:02.907Z,94303.00
2023-05-15T03:26:02.931Z,94305.00
2023-05-15T03:27:02.972Z,94305.00
2023-05-15T03:28:02.990Z,94307.00
2023-05-15T03:29:03.032Z,94305.00
2023-05-15T03:30:03.006Z,94301.00
2023-05-15T03:31:03.041Z,94301.00
2023-05-15T03:32:03.032Z,94299.00
2023-05-15T03:33:03.040Z,94303.00
2023-05-15T03:34:03.048Z,94303.00
2023-05-15T03:35:03.033Z,94307.00
2023-05-15T03:36:03.024Z,94305.00
2023-05-15T03:37:03.055Z,94305.00
2023-05-15T03:38:03.027Z,94307.00
2023-05-15T03:39:03.042Z,94305.00
2023-05-15T03:40:03.047Z,94303.00
2023-05-15T03:41:03.002Z,94303.00
2023-05-15T03:42:03.046Z,94305.00
2023-05-15T03:43:03.009Z,94307.00
2023-05-15T03:44:03.035Z,94305.00
2023-05-15T03:45:03.067Z,94305.00
2023-05-15T03:46:03.018Z,94305.00
2023-05-15T03:47:03.176Z,94305.00
2023-05-15T03:48:03.042Z,94309.00
2023-05-15T03:49:03.076Z,94311.00
2023-05-15T03:50:03.028Z,94315.00
2023-05-15T03:51:03.039Z,94313.00
2023-05-15T03:52:03.040Z,94313.00
2023-05-15T03:53:03.094Z,94311.00
2023-05-15T03:54:03.082Z,94313.00
2023-05-15T03:55:03.034Z,94311.00
2023-05-15T03:56:03.075Z,94313.00
2023-05-15T03:57:03.057Z,94313.00
2023-05-15T03:58:03.091Z,94311.00
2023-05-15T03:59:03.094Z,94311.00
2023-05-15T04:00:03.065Z,94313.00
2023-05-15T04:01:03.124Z,94313.00
2023-05-15T04:02:04.830Z,94335.00
2023-05-15T04:03:03.202Z,94339.00
2023-05-15T04:04:03.161Z,94345.00
2023-05-15T04:05:03.182Z,94346.00
2023-05-15T04:06:03.133Z,94346.00
2023-05-15T04:07:03.171Z,94346.00
2023-05-15T04:08:03.170Z,94348.00
2023-05-15T04:09:03.165Z,94346.00
2023-05-15T04:10:03.172Z,94346.00
2023-05-15T04:11:03.151Z,94345.00
2023-05-15T04:12:03.197Z,94346.00
2023-05-15T04:13:03.197Z,94343.00
2023-05-15T04:14:03.208Z,94341.00
2023-05-15T04:15:03.198Z,94348.00
2023-05-15T04:16:03.283Z,94346.00
2023-05-15T04:17:03.288Z,94348.00
2023-05-15T04:18:03.305Z,94348.00
2023-05-15T04:19:03.352Z,94350.00
2023-05-15T04:20:03.349Z,94348.00
2023-05-15T04:21:03.343Z,94352.00
2023-05-15T04:22:03.387Z,94352.00
2023-05-15T04:23:03.402Z,94350.00
2023-05-15T04:24:03.503Z,94354.00
2023-05-15T04:25:03.455Z,94358.00
2023-05-15T04:26:03.458Z,94354.00
2023-05-15T04:27:03.539Z,94356.00
2023-05-15T04:28:03.530Z,94354.00
2023-05-15T04:29:04.709Z,94358.00
2023-05-15T04:30:03.612Z,94356.00
2023-05-15T04:31:03.643Z,94339.00
2023-05-15T04:32:03.695Z,94337.00
2023-05-15T04:33:03.723Z,94341.00
2023-05-15T04:34:03.754Z,94341.00
2023-05-15T04:35:03.820Z,94341.00
2023-05-15T04:36:03.829Z,94343.00
2023-05-15T04:37:03.865Z,94341.00
2023-05-15T04:38:03.844Z,94339.00
2023-05-15T04:39:03.891Z,94345.00
2023-05-15T04:40:03.888Z,94343.00
2023-05-15T04:41:03.919Z,94345.00
2023-05-15T04:42:03.895Z,94343.00
2023-05-15T04:43:03.913Z,94343.00
2023-05-15T04:44:03.957Z,94343.00
2023-05-15T04:45:03.955Z,94343.00
2023-05-15T04:46:04.036Z,94341.00
2023-05-15T04:47:03.960Z,94345.00
2023-05-15T04:48:04.068Z,94341.00
2023-05-15T04:49:04.008Z,94343.00
2023-05-15T04:50:03.999Z,94345.00
2023-05-15T04:51:04.075Z,94343.00
2023-05-15T04:52:04.029Z,94343.00
2023-05-15T04:53:04.045Z,94341.00
2023-05-15T04:54:04.010Z,94343.00
2023-05-15T04:55:04.009Z,94343.00
2023-05-15T04:56:04.028Z,94346.00
2023-05-15T04:57:04.041Z,94346.00
2023-05-15T04:58:04.057Z,94346.00
2023-05-15T04:59:04.048Z,94350.00
2023-05-15T05:00:04.022Z,94350.00
2023-05-15T05:01:04.459Z,94307.00
2023-05-15T05:02:04.151Z,94348.00
2023-05-15T05:03:04.128Z,94350.00
2023-05-15T05:04:04.230Z,94348.00
2023-05-15T05:05:04.134Z,94350.00
2023-05-15T05:06:04.150Z,94346.00
2023-05-15T05:07:04.135Z,94350.00
2023-05-15T05:08:04.200Z,94350.00
2023-05-15T05:09:04.227Z,94354.00
2023-05-15T05:10:04.439Z,94354.00
2023-05-15T05:11:04.317Z,94360.00
2023-05-15T05:12:04.352Z,94362.00
2023-05-15T05:13:04.416Z,94364.00
2023-05-15T05:14:04.428Z,94364.00
2023-05-15T05:15:04.539Z,94368.00
2023-05-15T05:16:04.616Z,94374.00
2023-05-15T05:17:04.568Z,94372.00
2023-05-15T05:18:04.596Z,94370.00
2023-05-15T05:19:04.562Z,94370.00
2023-05-15T05:20:04.603Z,94376.00
2023-05-15T05:21:04.690Z,94374.00
2023-05-15T05:22:04.633Z,94376.00
2023-05-15T05:23:04.661Z,94384.00
2023-05-15T05:24:04.686Z,94386.00
2023-05-15T05:25:04.715Z,94386.00
2023-05-15T05:26:06.126Z,94388.00
2023-05-15T05:27:04.742Z,94384.00
2023-05-15T05:28:04.730Z,94386.00
2023-05-15T05:29:04.744Z,94376.00
2023-05-15T05:30:04.708Z,94384.00
2023-05-15T05:31:04.732Z,94386.00
2023-05-15T05:32:04.725Z,94388.00
2023-05-15T05:33:04.768Z,94388.00
2023-05-15T05:34:04.766Z,94391.00
2023-05-15T05:35:04.787Z,94391.00
2023-05-15T05:36:04.851Z,94390.00
2023-05-15T05:37:04.918Z,94388.00
2023-05-15T05:38:05.005Z,94390.00
2023-05-15T05:39:05.032Z,94391.00
2023-05-15T05:40:05.045Z,94393.00
2023-05-15T05:41:05.101Z,94393.00
2023-05-15T05:42:05.169Z,94393.00
2023-05-15T05:43:05.258Z,94393.00
2023-05-15T05:44:05.252Z,94395.00
2023-05-15T05:45:05.219Z,94397.00
2023-05-15T05:46:05.257Z,94397.00
2023-05-15T05:47:05.322Z,94399.00
2023-05-15T05:48:05.440Z,94397.00
2023-05-15T05:49:05.696Z,94401.00
2023-05-15T05:50:05.514Z,94401.00
2023-05-15T05:51:05.513Z,94401.00
2023-05-15T05:52:05.485Z,94405.00
2023-05-15T05:53:05.687Z,94405.00
2023-05-15T05:54:05.516Z,94403.00
2023-05-15T05:55:05.550Z,94403.00
2023-05-15T05:56:05.661Z,94403.00
2023-05-15T05:57:07.679Z,94405.00
2023-05-15T05:58:11.682Z,94401.00
2023-05-15T05:59:06.597Z,94403.00
2023-05-15T06:00:05.609Z,94401.00
2023-05-15T06:01:05.605Z,94403.00
2023-05-15T06:02:06.784Z,94403.00
2023-05-15T06:03:05.664Z,94401.00
2023-05-15T06:04:05.697Z,94401.00
2023-05-15T06:05:05.568Z,94401.00
2023-05-15T06:06:05.533Z,94403.00
2023-05-15T06:07:05.571Z,94407.00
2023-05-15T06:08:05.625Z,94407.00
2023-05-15T06:09:05.528Z,94403.00
2023-05-15T06:10:05.558Z,94403.00
2023-05-15T06:11:05.571Z,94401.00
2023-05-15T06:12:05.645Z,94403.00
2023-05-15T06:13:05.656Z,94397.00
2023-05-15T06:14:05.736Z,94401.00
2023-05-15T06:15:05.804Z,94399.00
2023-05-15T06:16:05.817Z,94399.00
2023-05-15T06:17:05.914Z,94401.00
2023-05-15T06:18:05.883Z,94405.00
2023-05-15T06:19:05.875Z,94407.00
2023-05-15T06:20:05.915Z,94407.00
2023-05-15T06:21:05.944Z,94401.00
2023-05-15T06:22:05.928Z,94401.00
2023-05-15T06:23:06.002Z,94401.00
2023-05-15T06:24:06.040Z,94399.00
2023-05-15T06:25:06.036Z,94401.00
2023-05-15T06:26:06.069Z,94403.00
2023-05-15T06:27:06.140Z,94403.00
2023-05-15T06:28:06.175Z,94403.00
2023-05-15T06:29:06.184Z,94405.00
2023-05-15T06:30:06.214Z,94405.00
2023-05-15T06:31:06.300Z,94409.00
2023-05-15T06:32:06.186Z,94411.00
2023-05-15T06:33:06.242Z,94413.00
2023-05-15T06:34:06.212Z,94411.00
2023-05-15T06:35:06.213Z,94409.00
2023-05-15T06:36:06.221Z,94409.00
2023-05-15T06:37:06.282Z,94411.00
2023-05-15T06:38:06.358Z,94413.00
2023-05-15T06:39:06.397Z,94413.00
2023-05-15T06:40:06.471Z,94411.00
2023-05-15T06:41:06.519Z,94413.00
2023-05-15T06:42:06.493Z,94411.00
2023-05-15T06:43:07.107Z,94413.00
2023-05-15T06:44:06.611Z,94419.00
2023-05-15T06:45:06.623Z,94415.00
2023-05-15T06:46:06.716Z,94415.00
2023-05-15T06:47:06.724Z,94421.00
2023-05-15T06:48:06.882Z,94421.00
2023-05-15T06:49:06.818Z,94419.00
2023-05-15T06:50:06.849Z,94440.00
2023-05-15T06:51:06.894Z,94438.00
2023-05-15T06:52:06.952Z,94438.00
2023-05-15T06:53:06.958Z,94437.00
2023-05-15T06:54:06.964Z,94435.00
2023-05-15T06:55:07.024Z,94433.00
2023-05-15T06:56:07.033Z,94433.00
2023-05-15T06:57:07.001Z,94431.00
2023-05-15T06:58:07.046Z,94427.00
2023-05-15T06:59:07.355Z,94425.00
2023-05-15T07:00:07.040Z,94421.00
2023-05-15T07:01:07.049Z,94421.00
2023-05-15T07:02:07.432Z,94425.00
2023-05-15T07:03:07.223Z,94433.00
2023-05-15T07:04:07.808Z,94429.00
2023-05-15T07:05:07.293Z,94425.00
2023-05-15T07:06:07.253Z,94425.00
2023-05-15T07:07:07.264Z,94427.00
2023-05-15T07:08:07.307Z,94429.00
2023-05-15T07:09:07.380Z,94433.00
2023-05-15T07:10:07.436Z,94431.00
2023-05-15T07:11:07.523Z,94433.00
2023-05-15T07:12:07.545Z,94433.00
2023-05-15T07:13:07.710Z,94437.00
2023-05-15T07:14:07.665Z,94437.00
2023-05-15T07:15:07.907Z,94440.00
2023-05-15T07:16:07.729Z,94438.00
2023-05-15T07:17:07.838Z,94444.00
2023-05-15T07:18:08.535Z,94444.00
2023-05-15T07:19:07.890Z,94448.00
2023-05-15T07:20:07.913Z,94446.00
2023-05-15T07:21:08.083Z,94442.00
2023-05-15T07:22:08.052Z,94442.00
2023-05-15T07:23:08.093Z,94442.00
2023-05-15T07:24:08.083Z,94442.00
2023-05-15T07:25:08.111Z,94438.00
2023-05-15T07:26:13.977Z,94438.00
2023-05-15T07:27:09.131Z,94438.00
2023-05-15T07:28:08.172Z,94438.00
2023-05-15T07:29:08.181Z,94438.00
2023-05-15T07:30:08.131Z,94423.00
2023-05-15T07:31:08.246Z,94423.00
2023-05-15T07:32:08.305Z,94423.00
2023-05-15T07:33:08.332Z,94425.00
2023-05-15T07:34:08.270Z,94425.00
2023-05-15T07:35:08.122Z,94425.00
2023-05-15T07:36:08.086Z,94423.00
2023-05-15T07:37:08.062Z,94427.00
2023-05-15T07:38:08.134Z,94425.00
2023-05-15T07:39:08.257Z,94429.00
2023-05-15T07:40:08.093Z,94429.00
2023-05-15T07:41:08.111Z,94429.00
2023-05-15T07:42:08.149Z,94429.00
2023-05-15T07:43:08.218Z,94427.00
2023-05-15T07:44:08.228Z,94423.00
2023-05-15T07:45:08.289Z,94421.00
2023-05-15T07:46:08.352Z,94423.00
2023-05-15T07:47:08.313Z,94421.00
2023-05-15T07:48:08.411Z,94421.00
2023-05-15T07:49:08.350Z,94417.00
2023-05-15T07:50:08.378Z,94413.00
2023-05-15T07:51:08.383Z,94415.00
2023-05-15T07:52:08.449Z,94411.00
2023-05-15T07:53:08.403Z,94409.00
2023-05-15T07:54:08.347Z,94411.00
2023-05-15T07:55:08.399Z,94409.00
2023-05-15T07:56:08.366Z,94409.00
2023-05-15T07:57:08.373Z,94409.00
2023-05-15T07:58:08.414Z,94413.00
2023-05-15T07:59:08.488Z,94415.00
2023-05-15T08:00:08.498Z,94417.00
2023-05-15T08:01:08.574Z,94417.00
2023-05-15T08:02:08.592Z,94413.00
2023-05-15T08:03:09.110Z,94417.00
2023-05-15T08:04:08.690Z,94413.00
2023-05-15T08:05:08.725Z,94411.00
2023-05-15T08:06:08.836Z,94409.00
2023-05-15T08:07:08.845Z,94409.00
2023-05-15T08:08:08.930Z,94409.00
2023-05-15T08:09:09.187Z,94411.00
2023-05-15T08:10:09.015Z,94409.00
2023-05-15T08:11:09.092Z,94415.00
2023-05-15T08:12:09.158Z,94429.00
2023-05-15T08:13:09.219Z,94431.00
2023-05-15T08:14:10.549Z,94427.00
2023-05-15T08:15:09.361Z,94431.00
2023-05-15T08:16:09.417Z,94429.00
2023-05-15T08:17:09.470Z,94407.00
2023-05-15T08:18:09.574Z,94409.00
2023-05-15T08:19:09.641Z,94403.00
2023-05-15T08:20:09.604Z,94405.00
2023-05-15T08:21:09.668Z,94405.00
2023-05-15T08:22:09.765Z,94403.00
2023-05-15T08:23:09.785Z,94421.00
2023-05-15T08:24:09.849Z,94417.00
2023-05-15T08:25:10.045Z,94413.00
2023-05-15T08:26:09.961Z,94393.00
2023-05-15T08:27:10.000Z,94393.00
2023-05-15T08:28:10.010Z,94393.00
2023-05-15T08:29:10.082Z,94393.00
2023-05-15T08:30:10.061Z,94391.00
2023-05-15T08:31:10.159Z,94393.00
2023-05-15T08:32:10.167Z,94390.00
2023-05-15T08:33:10.221Z,94388.00
2023-05-15T08:34:10.158Z,94384.00
2023-05-15T08:35:10.243Z,94372.00
2023-05-15T08:36:10.300Z,94368.00
2023-05-15T08:37:10.792Z,94370.00
2023-05-15T08:38:10.329Z,94368.00
2023-05-15T08:39:10.355Z,94364.00
2023-05-15T08:40:10.432Z,94368.00
2023-05-15T08:41:10.469Z,94370.00
2023-05-15T08:42:10.476Z,94376.00
2023-05-15T08:43:10.515Z,94376.00
2023-05-15T08:44:11.215Z,94376.00
2023-05-15T08:45:11.303Z,94372.00
2023-05-15T08:46:10.725Z,94374.00
2023-05-15T08:47:10.700Z,94376.00
2023-05-15T08:48:10.791Z,94384.00
2023-05-15T08:49:10.741Z,94376.00
2023-05-15T08:50:10.738Z,94376.00
2023-05-15T08:51:10.744Z,94384.00
2023-05-15T08:52:10.841Z,94384.00
2023-05-15T08:53:10.947Z,94384.00
2023-05-15T08:54:10.713Z,94386.00
2023-05-15T08:55:10.698Z,94376.00
2023-05-15T08:56:10.674Z,94376.00
2023-05-15T08:57:10.778Z,94386.00
2023-05-15T08:58:10.782Z,94384.00
2023-05-15T08:59:10.829Z,94376.00
2023-05-15T09:00:10.908Z,94376.00
2023-05-15T09:01:10.901Z,94374.00
2023-05-15T09:02:10.990Z,94374.00
2023-05-15T09:03:10.982Z,94372.00
2023-05-15T09:04:11.034Z,94376.00
2023-05-15T09:05:10.941Z,94370.00
2023-05-15T09:06:11.303Z,94370.00
2023-05-15T09:07:11.011Z,94368.00
2023-05-15T09:08:11.056Z,94370.00
2023-05-15T09:09:11.054Z,94370.00
2023-05-15T09:10:11.129Z,94372.00
2023-05-15T09:11:11.118Z,94374.00
2023-05-15T09:12:11.255Z,94376.00
2023-05-15T09:13:11.212Z,94376.00
2023-05-15T09:14:11.316Z,94376.00
2023-05-15T09:15:11.356Z,94376.00
2023-05-15T09:16:11.525Z,94370.00
2023-05-15T09:17:11.931Z,94370.00
2023-05-15T09:18:13.841Z,94368.00
2023-05-15T09:19:11.937Z,94368.00
2023-05-15T09:20:11.671Z,94366.00
2023-05-15T09:21:12.280Z,94364.00
2023-05-15T09:22:11.720Z,94366.00
2023-05-15T09:23:11.722Z,94364.00
2023-05-15T09:24:11.714Z,94362.00
2023-05-15T09:25:11.841Z,94360.00
2023-05-15T09:26:11.737Z,94360.00
2023-05-15T09:27:11.759Z,94366.00
2023-05-15T09:28:11.765Z,94370.00
2023-05-15T09:29:12.340Z,94372.00
2023-05-15T09:30:11.864Z,94374.00
2023-05-15T09:31:12.095Z,94376.00
2023-05-15T09:32:12.362Z,94388.00
2023-05-15T09:33:12.333Z,94390.00
2023-05-15T09:34:12.288Z,94391.00
2023-05-15T09:35:12.320Z,94391.00
2023-05-15T09:36:12.182Z,94391.00
2023-05-15T09:37:12.185Z,94393.00
2023-05-15T09:38:12.240Z,94395.00
2023-05-15T09:39:12.240Z,94397.00
2023-05-15T09:40:12.246Z,94399.00
2023-05-15T09:41:12.937Z,94399.00
2023-05-15T09:42:12.434Z,94397.00
2023-05-15T09:43:12.342Z,94399.00
2023-05-15T09:44:12.344Z,94397.00
2023-05-15T09:45:12.338Z,94397.00
2023-05-15T09:46:12.434Z,94395.00
2023-05-15T09:47:12.449Z,94397.00
2023-05-15T09:48:12.469Z,94395.00
2023-05-15T09:49:12.431Z,94401.00
2023-05-15T09:50:12.482Z,94397.00
2023-05-15T09:51:12.412Z,94401.00
2023-05-15T09:52:12.434Z,94399.00
2023-05-15T09:53:12.403Z,94397.00
2023-05-15T09:54:12.500Z,94397.00
2023-05-15T09:55:12.415Z,94397.00
2023-05-15T09:56:12.481Z,94395.00
2023-05-15T09:57:12.404Z,94395.00
2023-05-15T09:58:12.425Z,94395.00
2023-05-15T09:59:12.580Z,94391.00
2023-05-15T10:00:12.441Z,94388.00
2023-05-15T10:01:12.507Z,94388.00
2023-05-15T10:02:12.397Z,94390.00
2023-05-15T10:03:12.405Z,94388.00
2023-05-15T10:04:12.410Z,94388.00
2023-05-15T10:05:12.420Z,94388.00
2023-05-15T10:06:12.594Z,94388.00
2023-05-15T10:07:12.437Z,94390.00
2023-05-15T10:08:12.477Z,94390.00
2023-05-15T10:09:12.546Z,94386.00
2023-05-15T10:10:12.449Z,94384.00
2023-05-15T10:11:12.539Z,94386.00
2023-05-15T10:12:12.479Z,94374.00
2023-05-15T10:13:12.539Z,94374.00
2023-05-15T10:14:12.513Z,94370.00
2023-05-15T10:15:12.543Z,94364.00
2023-05-15T10:16:12.605Z,94362.00
2023-05-15T10:17:12.666Z,94360.00
2023-05-15T10:18:12.694Z,94360.00
2023-05-15T10:19:12.877Z,94360.00
2023-05-15T10:20:12.826Z,94356.00
2023-05-15T10:21:12.902Z,94356.00
2023-05-15T10:22:12.932Z,94356.00
2023-05-15T10:23:13.076Z,94354.00
2023-05-15T10:24:13.071Z,94352.00
2023-05-15T10:25:13.337Z,94352.00
2023-05-15T10:26:13.197Z,94348.00
2023-05-15T10:27:13.220Z,94346.00
2023-05-15T10:28:13.259Z,94346.00
2023-05-15T10:29:13.194Z,94345.00
2023-05-15T10:30:13.410Z,94343.00
2023-05-15T10:31:13.337Z,94343.00
2023-05-15T10:32:13.319Z,94345.00
2023-05-15T10:33:13.467Z,94350.00
2023-05-15T10:34:13.429Z,94348.00
2023-05-15T10:35:13.538Z,94343.00
2023-05-15T10:36:13.626Z,94356.00
2023-05-15T10:37:13.550Z,94354.00
2023-05-15T10:38:13.591Z,94352.00
2023-05-15T10:39:13.652Z,94350.00
2023-05-15T10:40:13.748Z,94350.00
2023-05-15T10:41:17.658Z,94354.00
2023-05-15T10:42:13.781Z,94352.00
2023-05-15T10:43:13.712Z,94350.00
2023-05-15T10:44:13.694Z,94348.00
2023-05-15T10:45:13.712Z,94352.00
2023-05-15T10:46:13.681Z,94352.00
2023-05-15T10:47:13.866Z,94352.00
2023-05-15T10:48:13.806Z,94352.00
2023-05-15T10:49:13.683Z,94354.00
2023-05-15T10:50:13.698Z,94354.00
2023-05-15T10:51:13.806Z,94358.00
2023-05-15T10:52:13.671Z,94356.00
2023-05-15T10:53:13.629Z,94356.00
2023-05-15T10:54:13.663Z,94358.00
2023-05-15T10:55:13.685Z,94354.00
2023-05-15T10:56:13.800Z,94354.00
2023-05-15T10:57:13.665Z,94354.00
2023-05-15T10:58:13.586Z,94354.00
2023-05-15T10:59:13.618Z,94352.00
2023-05-15T11:00:13.624Z,94358.00
2023-05-15T11:01:13.646Z,94354.00
2023-05-15T11:02:13.604Z,94358.00
2023-05-15T11:03:13.638Z,94360.00
2023-05-15T11:04:13.643Z,94358.00
2023-05-15T11:05:13.598Z,94364.00
2023-05-15T11:06:13.594Z,94364.00
2023-05-15T11:07:13.622Z,94362.00
2023-05-15T11:08:13.650Z,94368.00
2023-05-15T11:09:13.724Z,94370.00
2023-05-15T11:10:13.856Z,94370.00
2023-05-15T11:11:13.757Z,94368.00
2023-05-15T11:12:13.780Z,94372.00
2023-05-15T11:13:14.374Z,94374.00
2023-05-15T11:14:13.906Z,94374.00
2023-05-15T11:15:13.979Z,94374.00
2023-05-15T11:16:14.299Z,94384.00
2023-05-15T11:17:14.060Z,94376.00
2023-05-15T11:18:14.163Z,94360.00
2023-05-15T11:19:14.275Z,94376.00
2023-05-15T11:20:14.233Z,94384.00
2023-05-15T11:21:14.145Z,94384.00
2023-05-15T11:22:14.277Z,94376.00
2023-05-15T11:23:14.287Z,94386.00
2023-05-15T11:24:14.296Z,94376.00
2023-05-15T11:25:14.330Z,94384.00
2023-05-15T11:26:14.415Z,94376.00
2023-05-15T11:27:14.524Z,94376.00
2023-05-15T11:28:14.478Z,94384.00
2023-05-15T11:29:14.497Z,94384.00
2023-05-15T11:30:14.691Z,94386.00
2023-05-15T11:31:14.597Z,94386.00
2023-05-15T11:32:14.604Z,94384.00
2023-05-15T11:33:14.777Z,94384.00
2023-05-15T11:34:14.736Z,94386.00
2023-05-15T11:35:14.840Z,94388.00
2023-05-15T11:36:14.835Z,94376.00
2023-05-15T11:37:14.879Z,94376.00
2023-05-15T11:38:14.916Z,94384.00
2023-05-15T11:39:14.955Z,94384.00
2023-05-15T11:40:15.068Z,94386.00
2023-05-15T11:41:15.107Z,94386.00
2023-05-15T11:42:15.186Z,94386.00
2023-05-15T11:43:15.221Z,94384.00
2023-05-15T11:44:15.294Z,94386.00
2023-05-15T11:45:15.304Z,94384.00